createdAt,value
2022-12-18T00:00:02.495Z,1021.7055883380967
2022-12-18T00:15:02.181Z,1021.6905225139002
2022-12-18T00:30:01.924Z,1021.7172399249886
2022-12-18T00:45:01.613Z,1021.7705290998803
2022-12-18T01:00:02.278Z,1021.5882987380053
2022-12-18T01:15:02.365Z,1021.5907865839528
2022-12-18T01:30:02.071Z,1021.5423039755458
2022-12-18T01:45:01.706Z,1021.6843417536371
2022-12-18T02:00:02.412Z,1021.8042644343515
2022-12-18T02:15:02.031Z,1021.8203654418398
2022-12-18T02:30:01.713Z,1021.7701425948358
2022-12-18T02:45:02.417Z,1021.6776737505322
2022-12-18T03:00:02.059Z,1021.5141423220974
2022-12-18T03:15:01.702Z,1021.5475490365236
2022-12-18T03:30:02.397Z,1021.6478940257823
2022-12-18T03:45:02.001Z,1021.5981393375524
2022-12-18T04:00:01.684Z,1021.4759622875413
2022-12-18T04:15:02.525Z,1021.56434833597
2022-12-18T04:30:02.247Z,1021.6716403722953
2022-12-18T04:45:01.887Z,1021.5789887855187
2022-12-18T05:00:02.572Z,1021.5446279713916
2022-12-18T05:15:02.177Z,1021.4321249552295
2022-12-18T05:30:02.370Z,1021.424802971174
2022-12-18T05:45:02.054Z,1021.5342206682976
2022-12-18T06:00:01.779Z,1021.6676878162658
2022-12-18T06:15:02.432Z,1021.7995570785425
2022-12-18T06:30:02.111Z,1021.9578860168184
2022-12-18T06:45:01.800Z,1022.1027173325969
2022-12-18T07:00:02.444Z,1022.1999195162444
2022-12-18T07:15:02.166Z,1021.9946785080476
2022-12-18T07:30:01.827Z,1021.9501562571445
2022-12-18T07:45:02.440Z,1021.9264879225121
2022-12-18T08:00:02.087Z,1021.7818543345375
2022-12-18T08:15:01.824Z,1021.652284245991
2022-12-18T08:30:02.560Z,1021.4609680448772
2022-12-18T08:45:02.207Z,1021.7885793771896
2022-12-18T09:00:01.840Z,1021.4460265249338
2022-12-18T09:15:02.533Z,1021.507018270182
2022-12-18T09:30:02.170Z,1021.6585970830452
2022-12-18T09:45:01.880Z,1021.6750172846774
2022-12-18T10:00:02.523Z,1021.6198007376532
2022-12-18T10:15:02.177Z,1021.0217520917051
2022-12-18T10:30:01.855Z,1020.8774527503284
2022-12-18T10:45:02.531Z,1020.8980725665571
2022-12-18T11:00:02.137Z,1020.3825414163462
2022-12-18T11:15:01.807Z,1020.3079374724167
2022-12-18T11:30:02.493Z,1020.0397901160904
2022-12-18T11:45:02.126Z,1019.9575986938117
2022-12-18T12:00:01.784Z,1019.6288985462238
2022-12-18T12:15:02.426Z,1019.581287311164
2022-12-18T12:30:02.099Z,1019.487079059875
2022-12-18T12:45:01.764Z,1019.3427481439041
2022-12-18T13:00:02.529Z,1018.9737620012625
2022-12-18T13:15:02.293Z,1018.6940900320687
2022-12-18T13:30:01.996Z,1018.3652322473602
2022-12-18T13:45:01.671Z,1018.3040178268767
2022-12-18T14:00:02.315Z,1018.1413414781185
2022-12-18T14:15:01.929Z,1018.2021957636952
2022-12-18T14:30:01.585Z,1017.8615495919194
2022-12-18T14:45:14.525Z,1017.6954715195554
2022-12-18T15:00:02.439Z,1017.6031764816719
2022-12-18T15:15:02.103Z,1017.397595857383
2022-12-18T15:30:01.858Z,1017.0471219339877
2022-12-18T15:45:02.522Z,1016.9227021704795
2022-12-18T16:00:02.374Z,1016.6782535472464
2022-12-18T16:15:02.159Z,1016.4004711951156
2022-12-18T16:30:01.841Z,1016.0739390239597
2022-12-18T16:45:02.530Z,1015.9151711775146
2022-12-18T17:00:05.481Z,1015.8702186687624
2022-12-18T17:15:01.638Z,1015.6736358577124
2022-12-18T17:30:02.318Z,1015.486749721727
2022-12-18T17:45:02.018Z,1015.517240315101
2022-12-18T18:00:01.649Z,1015.4615843965175
2022-12-18T18:15:02.328Z,1015.2976101334104
2022-12-18T18:30:01.978Z,1015.2139690506367
2022-12-18T18:45:01.646Z,1015.162176018853
2022-12-18T19:00:02.333Z,1015.2606023873145
2022-12-18T19:15:02.045Z,1015.1798032910269
2022-12-18T19:30:01.733Z,1015.1966366406732
2022-12-18T19:45:02.427Z,1015.3948046954148
2022-12-18T20:00:02.255Z,1015.3595131758896
2022-12-18T20:15:01.882Z,1015.2887137682504
2022-12-18T20:30:02.574Z,1015.3899743763259
2022-12-18T20:45:02.227Z,1015.1770819825713
2022-12-18T21:00:01.902Z,1015.1274973650209
2022-12-18T21:15:02.596Z,1015.0274428557802
2022-12-18T21:30:02.301Z,1015.0331123790102
2022-12-18T21:45:02.003Z,1015.0330975474326
2022-12-18T22:00:01.664Z,1015.0217256235995
2022-12-18T22:15:02.259Z,1014.7405320008276
2022-12-18T22:30:01.988Z,1014.6148754345352
2022-12-18T22:45:01.730Z,1014.6360041650317
2022-12-18T23:00:02.432Z,1014.5745101903303
2022-12-18T23:15:02.169Z,1014.4474562268981
2022-12-18T23:30:01.924Z,1014.2415953966672
2022-12-18T23:45:01.594Z,1013.9080961166705
